createdAt,value
2022-08-23T00:01:18.218Z,2.60
2022-08-23T00:03:48.207Z,3.27
2022-08-23T00:06:14.948Z,2.90
2022-08-23T00:08:44.807Z,2.77
2022-08-23T00:11:34.621Z,2.97
2022-08-23T00:14:13.584Z,2.73
2022-08-23T00:16:41.129Z,3.00
2022-08-23T00:19:09.274Z,3.07
2022-08-23T00:21:37.385Z,3.00
2022-08-23T00:24:07.332Z,2.50
2022-08-23T00:26:49.688Z,3.10
2022-08-23T00:29:16.778Z,2.97
2022-08-23T00:31:43.358Z,3.10
2022-08-23T00:34:09.997Z,2.80
2022-08-23T00:36:36.647Z,2.67
2022-08-23T00:39:03.313Z,3.03
2022-08-23T00:41:30.246Z,2.70
2022-08-23T00:44:15.887Z,2.60
2022-08-23T00:47:04.449Z,3.07
2022-08-23T00:49:32.162Z,2.70
2022-08-23T00:52:01.182Z,2.73
2022-08-23T00:54:29.332Z,2.67
2022-08-23T00:56:59.155Z,2.80
2022-08-23T00:59:26.012Z,2.80
2022-08-23T01:01:53.057Z,2.90
2022-08-23T01:04:19.921Z,2.93
2022-08-23T01:06:56.147Z,2.63
2022-08-23T01:09:22.789Z,2.80
2022-08-23T01:12:15.846Z,2.93
2022-08-23T01:14:52.167Z,3.07
2022-08-23T01:17:48.111Z,2.63
2022-08-23T01:20:22.315Z,2.93
2022-08-23T01:23:25.778Z,3.20
2022-08-23T01:25:52.696Z,2.90
2022-08-23T01:28:19.190Z,2.80
2022-08-23T01:30:48.283Z,3.03
2022-08-23T01:33:14.925Z,3.37
2022-08-23T01:35:45.101Z,2.97
2022-08-23T01:38:12.320Z,3.00
2022-08-23T01:40:39.807Z,2.97
2022-08-23T01:43:06.909Z,3.03
2022-08-23T01:45:34.075Z,3.07
2022-08-23T01:48:01.298Z,3.07
2022-08-23T01:50:29.242Z,3.27
2022-08-23T01:52:56.128Z,2.67
2022-08-23T01:55:23.131Z,2.97
2022-08-23T01:57:53.301Z,3.17
2022-08-23T02:00:22.476Z,2.77
2022-08-23T02:02:49.152Z,3.03
2022-08-23T02:05:18.768Z,3.40
2022-08-23T02:07:45.887Z,2.77
2022-08-23T02:10:12.537Z,3.13
2022-08-23T02:12:39.151Z,2.80
2022-08-23T02:15:06.581Z,2.97
2022-08-23T02:17:33.877Z,2.93
2022-08-23T02:20:02.144Z,2.57
2022-08-23T02:22:28.820Z,3.30
2022-08-23T02:24:55.433Z,2.97
2022-08-23T02:27:21.978Z,3.17
2022-08-23T02:29:51.690Z,3.20
2022-08-23T02:32:19.752Z,3.20
2022-08-23T02:34:51.335Z,3.20
2022-08-23T02:37:32.883Z,3.17
2022-08-23T02:39:59.835Z,3.53
2022-08-23T02:42:26.476Z,3.37
2022-08-23T02:44:53.125Z,3.40
2022-08-23T02:47:19.687Z,2.80
2022-08-23T02:49:46.735Z,3.47
2022-08-23T02:52:13.265Z,3.33
2022-08-23T02:54:39.836Z,2.93
2022-08-23T02:57:06.872Z,3.10
2022-08-23T02:59:33.648Z,3.53
2022-08-23T03:02:00.348Z,3.03
2022-08-23T03:04:26.959Z,3.30
2022-08-23T03:06:53.577Z,3.37
2022-08-23T03:09:20.078Z,3.40
2022-08-23T03:11:47.810Z,2.87
2022-08-23T03:14:14.520Z,3.30
2022-08-23T03:16:41.242Z,3.37
2022-08-23T03:19:07.975Z,3.00
2022-08-23T03:21:34.755Z,2.83
2022-08-23T03:24:02.241Z,3.60
2022-08-23T03:26:33.526Z,2.80
2022-08-23T03:29:00.031Z,3.17
2022-08-23T03:31:26.588Z,3.53
2022-08-23T03:33:57.036Z,3.07
2022-08-23T03:36:27.957Z,3.23
2022-08-23T03:38:55.739Z,3.03
2022-08-23T03:41:22.575Z,3.03
2022-08-23T03:43:49.537Z,3.30
2022-08-23T03:46:25.863Z,3.60
2022-08-23T03:48:55.510Z,3.50
2022-08-23T03:51:24.129Z,3.40
2022-08-23T03:53:51.310Z,3.43
2022-08-23T03:56:27.109Z,2.97
2022-08-23T03:58:54.211Z,3.07
2022-08-23T04:01:23.243Z,3.00
2022-08-23T04:03:51.917Z,3.03
2022-08-23T04:06:19.020Z,3.50
2022-08-23T04:08:46.066Z,3.50
2022-08-23T04:11:14.451Z,3.40
2022-08-23T04:13:41.232Z,3.77
2022-08-23T04:16:09.497Z,3.47
2022-08-23T04:18:36.688Z,3.17
2022-08-23T04:21:10.032Z,3.57
2022-08-23T04:23:37.810Z,3.50
2022-08-23T04:26:05.975Z,3.60
2022-08-23T04:28:36.350Z,3.50
2022-08-23T04:31:04.876Z,3.30
2022-08-23T04:33:32.879Z,3.47
2022-08-23T04:36:00.774Z,4.10
2022-08-23T04:38:27.691Z,4.00
2022-08-23T04:41:14.045Z,3.90
2022-08-23T04:43:40.974Z,3.60
2022-08-23T04:46:07.980Z,3.80
2022-08-23T04:48:35.478Z,3.70
2022-08-23T04:51:02.328Z,3.80
2022-08-23T04:53:34.999Z,4.33
2022-08-23T04:56:02.880Z,3.93
2022-08-23T04:58:30.795Z,4.27
2022-08-23T05:00:59.792Z,3.73
2022-08-23T05:03:27.609Z,3.73
2022-08-23T05:05:54.346Z,3.67
2022-08-23T05:08:21.157Z,3.50
2022-08-23T05:10:47.724Z,3.80
2022-08-23T05:13:14.245Z,4.40
2022-08-23T05:15:40.857Z,4.63
2022-08-23T05:18:08.226Z,4.67
2022-08-23T05:20:34.721Z,4.27
2022-08-23T05:23:01.590Z,4.67
2022-08-23T05:25:49.109Z,4.93
2022-08-23T05:28:34.655Z,4.93
2022-08-23T05:31:11.432Z,4.40
2022-08-23T05:33:39.080Z,4.30
2022-08-23T05:36:06.539Z,4.37
2022-08-23T05:38:34.036Z,4.27
2022-08-23T05:41:05.138Z,4.30
2022-08-23T05:43:32.345Z,4.90
2022-08-23T05:46:05.013Z,4.57
2022-08-23T05:48:34.167Z,4.37
2022-08-23T05:51:25.039Z,4.80
2022-08-23T05:53:52.354Z,5.33
2022-08-23T05:56:31.099Z,5.20
2022-08-23T05:59:00.126Z,4.97
2022-08-23T06:01:30.472Z,4.90
2022-08-23T06:04:00.195Z,5.33
2022-08-23T06:06:37.486Z,4.93
2022-08-23T06:09:06.782Z,4.67
2022-08-23T06:11:34.349Z,4.67
2022-08-23T06:14:03.275Z,4.43
2022-08-23T06:16:36.053Z,4.57
2022-08-23T06:19:03.919Z,4.60
2022-08-23T06:21:31.461Z,4.30
2022-08-23T06:23:58.328Z,4.97
2022-08-23T06:26:27.931Z,4.90
2022-08-23T06:28:56.403Z,4.80
2022-08-23T06:31:43.141Z,4.73
2022-08-23T06:34:12.160Z,5.07
2022-08-23T06:36:39.056Z,4.40
2022-08-23T06:39:07.247Z,4.73
2022-08-23T06:41:34.103Z,4.10
2022-08-23T06:44:00.799Z,4.30
2022-08-23T06:46:29.911Z,3.70
2022-08-23T06:48:57.873Z,4.33
2022-08-23T06:51:29.623Z,4.13
2022-08-23T06:54:03.050Z,3.70
2022-08-23T06:56:30.029Z,3.90
2022-08-23T06:58:56.740Z,3.70
2022-08-23T07:01:47.994Z,4.23
2022-08-23T07:04:18.360Z,4.40
2022-08-23T07:06:45.166Z,4.07
2022-08-23T07:09:12.308Z,4.70
2022-08-23T07:11:39.775Z,4.83
2022-08-23T07:14:08.903Z,3.80
2022-08-23T07:16:38.392Z,4.07
2022-08-23T07:19:05.893Z,3.60
2022-08-23T07:21:32.838Z,3.60
2022-08-23T07:23:59.663Z,3.40
2022-08-23T07:26:26.274Z,3.30
2022-08-23T07:28:55.400Z,3.20
2022-08-23T07:31:28.559Z,3.53
2022-08-23T07:33:58.908Z,3.20
2022-08-23T07:36:28.429Z,3.27
2022-08-23T07:38:56.333Z,3.00
2022-08-23T07:41:24.793Z,3.10
2022-08-23T07:43:51.772Z,2.70
2022-08-23T07:46:18.488Z,2.47
2022-08-23T07:48:53.917Z,2.57
2022-08-23T07:51:21.065Z,2.57
2022-08-23T07:53:47.929Z,2.40
2022-08-23T07:56:16.175Z,2.70
2022-08-23T07:58:42.810Z,2.37
2022-08-23T08:01:16.670Z,2.60
2022-08-23T08:03:44.673Z,2.70
2022-08-23T08:06:16.083Z,2.40
2022-08-23T08:08:43.488Z,5.00
2022-08-23T08:11:11.557Z,4.90
2022-08-23T08:13:40.162Z,3.30
2022-08-23T08:16:08.554Z,2.87
2022-08-23T08:18:36.701Z,2.60
2022-08-23T08:21:04.378Z,2.30
2022-08-23T08:23:31.190Z,2.50
2022-08-23T08:26:07.367Z,2.90
2022-08-23T08:28:35.617Z,3.00
2022-08-23T08:31:03.034Z,2.97
2022-08-23T08:33:30.846Z,2.80
2022-08-23T08:35:59.331Z,2.63
2022-08-23T08:38:30.764Z,2.53
2022-08-23T08:41:13.648Z,2.27
2022-08-23T08:43:54.278Z,2.70
2022-08-23T08:46:38.184Z,2.37
2022-08-23T08:49:05.636Z,2.47
2022-08-23T08:51:45.036Z,2.63
2022-08-23T08:54:14.557Z,2.60
2022-08-23T08:56:41.609Z,6.20
2022-08-23T08:59:13.410Z,4.13
2022-08-23T09:01:40.085Z,2.77
2022-08-23T09:04:07.057Z,2.43
2022-08-23T09:07:03.547Z,2.80
2022-08-23T09:10:03.759Z,2.17
2022-08-23T09:13:14.852Z,2.83
2022-08-23T09:15:58.139Z,2.17
2022-08-23T09:18:25.093Z,2.37
2022-08-23T09:20:54.287Z,2.60
2022-08-23T09:23:22.653Z,2.30
2022-08-23T09:25:54.657Z,5.27
2022-08-23T09:28:21.819Z,3.10
2022-08-23T09:30:52.937Z,2.47
2022-08-23T09:33:22.405Z,2.83
2022-08-23T09:36:25.938Z,2.60
2022-08-23T09:39:01.209Z,2.63
2022-08-23T09:41:41.480Z,3.13
2022-08-23T09:44:13.438Z,2.77
2022-08-23T09:46:44.157Z,2.43
2022-08-23T09:49:29.713Z,2.63
2022-08-23T09:52:02.497Z,2.77
2022-08-23T09:54:34.632Z,2.63
2022-08-23T09:57:05.018Z,5.50
2022-08-23T09:59:51.747Z,3.10
2022-08-23T10:02:31.823Z,3.00
2022-08-23T10:05:12.083Z,2.80
2022-08-23T10:07:45.753Z,3.37
2022-08-23T10:10:29.197Z,3.03
2022-08-23T10:12:57.153Z,2.60
2022-08-23T10:15:49.384Z,2.70
2022-08-23T10:18:25.121Z,2.80
2022-08-23T10:21:21.076Z,2.83
2022-08-23T10:23:53.377Z,2.70
2022-08-23T10:26:31.370Z,2.90
2022-08-23T10:29:22.892Z,2.73
2022-08-23T10:32:02.655Z,2.83
2022-08-23T10:34:55.073Z,3.00
2022-08-23T10:37:52.715Z,2.70
2022-08-23T10:40:28.899Z,2.70
2022-08-23T10:42:58.736Z,3.47
2022-08-23T10:45:39.085Z,2.23
2022-08-23T10:48:32.397Z,2.63
2022-08-23T10:51:08.241Z,3.00
2022-08-23T10:53:46.819Z,3.03
2022-08-23T10:56:20.923Z,2.70
2022-08-23T10:59:02.390Z,2.60
2022-08-23T11:01:41.098Z,2.63
2022-08-23T11:04:15.470Z,2.78
2022-08-23T11:06:45.760Z,2.70
2022-08-23T11:09:21.407Z,2.38
2022-08-23T11:12:11.146Z,2.80
2022-08-23T11:14:42.831Z,2.25
2022-08-23T11:17:13.102Z,2.90
2022-08-23T11:19:47.792Z,2.60
2022-08-23T11:22:34.991Z,2.40
2022-08-23T11:25:16.832Z,2.90
2022-08-23T11:27:44.292Z,2.80
2022-08-23T11:30:29.868Z,2.50
2022-08-23T11:32:56.546Z,2.90
2022-08-23T11:35:43.185Z,2.70
2022-08-23T11:38:10.634Z,2.65
2022-08-23T11:40:49.482Z,2.80
2022-08-23T11:43:28.044Z,2.50
2022-08-23T11:46:16.145Z,2.60
2022-08-23T11:48:46.630Z,2.70
2022-08-23T11:51:32.039Z,2.70
2022-08-23T11:54:01.671Z,2.65
2022-08-23T11:56:34.791Z,2.45
2022-08-23T11:59:35.005Z,2.53
2022-08-23T12:02:34.158Z,2.40
2022-08-23T12:05:06.761Z,2.78
2022-08-23T12:07:45.610Z,2.65
2022-08-23T12:10:16.322Z,2.60
2022-08-23T12:12:47.151Z,2.42
2022-08-23T12:15:16.860Z,2.58
2022-08-23T12:17:43.321Z,3.20
2022-08-23T12:20:16.236Z,2.70
2022-08-23T12:22:58.091Z,2.72
2022-08-23T12:25:29.855Z,2.60
2022-08-23T12:28:12.435Z,2.40
2022-08-23T12:30:57.839Z,2.45
2022-08-23T12:33:37.591Z,2.63
2022-08-23T12:36:36.749Z,2.60
2022-08-23T12:39:20.499Z,2.58
2022-08-23T12:41:59.052Z,2.55
2022-08-23T12:44:28.235Z,2.50
2022-08-23T12:46:55.077Z,2.90
2022-08-23T12:49:31.909Z,2.80
2022-08-23T12:52:02.704Z,2.97
2022-08-23T12:54:42.523Z,2.70
2022-08-23T12:57:18.286Z,2.90
2022-08-23T12:59:50.951Z,2.90
2022-08-23T13:02:24.241Z,2.85
2022-08-23T13:04:51.359Z,2.80
2022-08-23T13:07:21.611Z,2.58
2022-08-23T13:09:53.521Z,2.88
2022-08-23T13:12:22.169Z,2.50
2022-08-23T13:14:51.406Z,2.80
2022-08-23T13:17:26.813Z,2.80
2022-08-23T13:20:15.568Z,2.55
2022-08-23T13:23:07.285Z,3.00
2022-08-23T13:25:37.139Z,2.75
2022-08-23T13:28:27.507Z,2.60
2022-08-23T13:30:59.823Z,4.45
2022-08-23T13:33:26.475Z,3.40
2022-08-23T13:36:13.695Z,2.83
2022-08-23T13:38:42.186Z,2.55
2022-08-23T13:41:29.726Z,2.63
2022-08-23T13:43:56.384Z,2.67
2022-08-23T13:46:28.342Z,2.47
2022-08-23T13:48:57.966Z,2.40
2022-08-23T13:51:37.151Z,2.30
2022-08-23T13:54:10.320Z,2.53
2022-08-23T13:56:47.365Z,3.17
2022-08-23T13:59:22.749Z,2.63
2022-08-23T14:01:54.008Z,3.17
2022-08-23T14:04:20.920Z,2.10
2022-08-23T14:06:48.949Z,2.70
2022-08-23T14:09:15.814Z,2.30
2022-08-23T14:11:42.632Z,2.35
2022-08-23T14:14:09.864Z,2.40
2022-08-23T14:16:40.636Z,2.30
2022-08-23T14:19:54.903Z,2.25
2022-08-23T14:21:56.258Z,2.13
2022-08-23T14:24:22.795Z,2.28
2022-08-23T14:26:52.300Z,1.98
2022-08-23T14:29:21.578Z,2.40
2022-08-23T14:31:50.184Z,2.22
2022-08-23T14:34:16.793Z,2.08
2022-08-23T14:38:00.269Z,2.05
2022-08-23T14:39:31.171Z,2.00
2022-08-23T14:41:58.313Z,2.00
2022-08-23T14:44:27.925Z,2.22
2022-08-23T14:46:56.939Z,2.20
2022-08-23T14:49:23.453Z,2.10
2022-08-23T14:51:50.428Z,3.13
2022-08-23T14:54:25.223Z,2.65
2022-08-23T14:56:51.963Z,2.10
2022-08-23T14:59:18.623Z,2.67
2022-08-23T15:01:46.633Z,2.65
2022-08-23T15:04:18.064Z,2.10
2022-08-23T15:07:07.045Z,2.20
2022-08-23T15:09:32.523Z,2.30
2022-08-23T15:14:46.490Z,2.20
2022-08-23T15:17:13.712Z,2.65
2022-08-23T15:19:40.366Z,2.25
2022-08-23T15:22:21.884Z,2.30
2022-08-23T15:24:49.158Z,2.50
2022-08-23T15:27:15.959Z,2.40
2022-08-23T15:29:42.524Z,2.20
2022-08-23T15:32:09.249Z,2.40
2022-08-23T15:34:40.119Z,2.13
2022-08-23T15:37:11.449Z,2.40
2022-08-23T15:39:38.223Z,2.42
2022-08-23T15:42:05.030Z,2.67
2022-08-23T15:44:31.562Z,2.53
2022-08-23T15:46:58.170Z,2.30
2022-08-23T15:49:25.752Z,2.45
2022-08-23T15:51:52.377Z,2.65
2022-08-23T15:54:18.898Z,2.55
2022-08-23T15:56:48.215Z,2.47
2022-08-23T15:59:16.185Z,2.50
2022-08-23T16:01:43.682Z,2.20
2022-08-23T16:04:10.564Z,2.08
2022-08-23T16:06:39.358Z,2.33
2022-08-23T16:09:08.167Z,2.25
2022-08-23T16:11:35.393Z,2.53
2022-08-23T16:14:02.038Z,2.40
2022-08-23T16:16:31.337Z,2.10
2022-08-23T16:18:59.827Z,2.53
2022-08-23T16:21:28.191Z,2.50
2022-08-23T16:26:47.397Z,2.63
2022-08-23T16:29:17.154Z,2.35
2022-08-23T16:31:44.876Z,2.30
2022-08-23T16:34:14.413Z,2.28
2022-08-23T16:36:43.629Z,2.75
2022-08-23T16:39:11.558Z,2.47
2022-08-23T16:41:38.592Z,2.33
2022-08-23T16:44:05.212Z,2.33
2022-08-23T16:46:31.947Z,2.55
2022-08-23T16:48:58.517Z,2.60
2022-08-23T16:51:25.057Z,4.45
2022-08-23T16:54:01.770Z,3.00
2022-08-23T16:56:31.043Z,2.60
2022-08-23T16:58:58.081Z,2.25
2022-08-23T17:01:24.806Z,2.55
2022-08-23T17:03:51.481Z,2.60
2022-08-23T17:06:18.364Z,2.65
2022-08-23T17:08:45.203Z,2.40
2022-08-23T17:11:14.906Z,2.90
2022-08-23T17:13:41.886Z,2.47
2022-08-23T17:16:10.664Z,2.67
2022-08-23T17:18:38.495Z,3.42
2022-08-23T17:21:05.213Z,3.80
2022-08-23T17:23:31.854Z,2.40
2022-08-23T17:25:59.520Z,2.38
2022-08-23T17:28:26.171Z,2.53
2022-08-23T17:30:52.867Z,2.97
2022-08-23T17:33:19.556Z,2.60
2022-08-23T17:35:46.496Z,3.25
2022-08-23T17:38:13.506Z,8.68
2022-08-23T17:40:41.081Z,4.93
2022-08-23T17:43:08.204Z,3.55
2022-08-23T17:45:45.144Z,2.78
2022-08-23T17:48:12.556Z,2.63
2022-08-23T17:50:39.822Z,2.70
2022-08-23T17:53:06.676Z,3.22
2022-08-23T17:55:35.618Z,2.63
2022-08-23T17:58:04.350Z,2.35
2022-08-23T18:00:33.638Z,2.95
2022-08-23T18:03:00.880Z,2.80
2022-08-23T18:05:29.677Z,6.93
2022-08-23T18:07:56.452Z,3.08
2022-08-23T18:10:24.923Z,3.15
2022-08-23T18:12:52.315Z,2.17
2022-08-23T18:15:19.015Z,2.72
2022-08-23T18:17:45.881Z,2.92
2022-08-23T18:20:13.250Z,3.00
2022-08-23T18:22:40.254Z,2.50
2022-08-23T18:25:08.279Z,2.50
2022-08-23T18:27:53.118Z,2.75
2022-08-23T18:30:20.409Z,2.65
2022-08-23T18:32:47.107Z,2.95
2022-08-23T18:35:14.069Z,3.13
2022-08-23T18:37:41.825Z,3.30
2022-08-23T18:40:10.061Z,5.28
2022-08-23T18:42:37.239Z,3.78
2022-08-23T18:45:05.391Z,3.08
2022-08-23T18:47:32.071Z,3.30
2022-08-23T18:49:58.566Z,3.20
2022-08-23T18:52:27.180Z,3.53
2022-08-23T18:54:58.076Z,3.90
2022-08-23T18:57:24.700Z,3.30
2022-08-23T18:59:51.638Z,3.50
2022-08-23T19:02:18.546Z,3.72
2022-08-23T19:04:46.063Z,3.53
2022-08-23T19:07:12.964Z,4.60
2022-08-23T19:09:39.598Z,3.83
2022-08-23T19:12:06.602Z,4.70
2022-08-23T19:14:35.738Z,4.57
2022-08-23T19:17:08.120Z,5.03
2022-08-23T19:19:35.136Z,4.47
2022-08-23T19:22:01.783Z,4.72
2022-08-23T19:24:28.861Z,5.00
2022-08-23T19:26:55.781Z,5.15
2022-08-23T19:29:22.371Z,4.88
2022-08-23T19:31:50.345Z,5.35
2022-08-23T19:34:18.987Z,4.70
2022-08-23T19:36:51.228Z,4.60
2022-08-23T19:39:26.340Z,4.10
2022-08-23T19:41:53.174Z,4.60
2022-08-23T19:44:20.168Z,4.20
2022-08-23T19:46:46.749Z,4.32
2022-08-23T19:49:14.770Z,4.68
2022-08-23T19:51:42.071Z,4.97
2022-08-23T19:54:11.655Z,5.55
2022-08-23T19:56:44.627Z,4.80
2022-08-23T19:59:30.362Z,4.65
2022-08-23T20:01:59.301Z,5.05
2022-08-23T20:04:28.344Z,6.93
2022-08-23T20:06:55.019Z,5.75
2022-08-23T20:09:22.787Z,5.88
2022-08-23T20:11:51.714Z,5.10
2022-08-23T20:14:22.909Z,5.80
2022-08-23T20:16:50.280Z,5.32
2022-08-23T20:19:17.055Z,5.68
2022-08-23T20:21:44.003Z,5.68
2022-08-23T20:24:12.940Z,5.63
2022-08-23T20:26:42.157Z,5.18
2022-08-23T20:29:11.169Z,4.65
2022-08-23T20:31:40.801Z,3.90
2022-08-23T20:34:09.332Z,4.53
2022-08-23T20:36:36.048Z,5.40
2022-08-23T20:39:02.904Z,4.50
2022-08-23T20:41:34.544Z,5.15
2022-08-23T20:44:02.259Z,5.30
2022-08-23T20:46:28.959Z,4.70
2022-08-23T20:48:57.808Z,3.90
2022-08-23T20:51:25.367Z,3.67
2022-08-23T20:53:51.975Z,4.47
2022-08-23T20:56:19.053Z,4.32
2022-08-23T20:58:47.295Z,4.50
2022-08-23T21:01:15.830Z,4.28
2022-08-23T21:03:43.059Z,3.60
2022-08-23T21:06:16.608Z,4.70
2022-08-23T21:08:47.984Z,5.28
2022-08-23T21:11:15.445Z,4.80
2022-08-23T21:13:44.271Z,3.95
2022-08-23T21:16:15.176Z,5.03
2022-08-23T21:18:42.484Z,4.82
2022-08-23T21:21:09.418Z,4.53
2022-08-23T21:23:36.647Z,20.23
2022-08-23T21:26:04.027Z,11.20
2022-08-23T21:28:30.689Z,5.50
2022-08-23T21:31:05.884Z,5.50
2022-08-23T21:33:35.564Z,6.60
2022-08-23T21:36:04.875Z,6.40
2022-08-23T21:38:31.773Z,5.80
2022-08-23T21:41:00.845Z,5.90
2022-08-23T21:43:29.503Z,5.00
2022-08-23T21:45:56.206Z,5.60
2022-08-23T21:48:23.676Z,5.10
2022-08-23T21:50:51.397Z,4.20
2022-08-23T21:53:18.898Z,4.72
2022-08-23T21:55:45.563Z,5.30
2022-08-23T21:58:13.912Z,5.53
2022-08-23T22:00:41.249Z,5.65
2022-08-23T22:03:09.147Z,4.90
2022-08-23T22:05:43.201Z,5.80
2022-08-23T22:08:10.762Z,5.30
2022-08-23T22:10:48.186Z,4.93
2022-08-23T22:13:24.150Z,5.13
2022-08-23T22:15:50.717Z,5.47
2022-08-23T22:18:17.352Z,4.97
2022-08-23T22:20:43.828Z,5.07
2022-08-23T22:23:10.507Z,6.30
2022-08-23T22:25:37.294Z,6.43
2022-08-23T22:28:03.845Z,5.50
2022-08-23T22:30:30.335Z,5.00
2022-08-23T22:32:56.929Z,5.30
2022-08-23T22:35:23.416Z,5.60
2022-08-23T22:38:12.372Z,5.40
2022-08-23T22:40:36.719Z,5.57
2022-08-23T22:43:03.485Z,4.23
2022-08-23T22:45:30.036Z,4.10
2022-08-23T22:47:56.694Z,5.00
2022-08-23T22:50:23.264Z,4.90
2022-08-23T22:52:50.803Z,4.50
2022-08-23T22:55:17.872Z,4.70
2022-08-23T22:57:44.533Z,4.30
2022-08-23T23:00:11.873Z,4.77
2022-08-23T23:02:38.990Z,4.90
2022-08-23T23:05:07.763Z,4.10
2022-08-23T23:07:53.126Z,4.83
2022-08-23T23:10:19.642Z,4.10
2022-08-23T23:12:46.380Z,4.67
2022-08-23T23:15:13.374Z,4.40
2022-08-23T23:17:40.048Z,5.03
2022-08-23T23:20:25.428Z,4.57
2022-08-23T23:22:52.088Z,4.87
2022-08-23T23:25:18.825Z,4.27
2022-08-23T23:27:45.568Z,4.37
2022-08-23T23:30:13.041Z,4.20
2022-08-23T23:32:39.553Z,3.63
2022-08-23T23:35:08.783Z,3.73
2022-08-23T23:37:35.467Z,3.30
2022-08-23T23:40:02.624Z,4.77
2022-08-23T23:42:29.198Z,3.97
2022-08-23T23:44:55.673Z,4.30
2022-08-23T23:47:22.364Z,4.40
2022-08-23T23:49:50.551Z,3.40
2022-08-23T23:52:17.273Z,4.10
2022-08-23T23:54:43.829Z,4.30
2022-08-23T23:57:10.412Z,4.20
2022-08-23T23:59:37.076Z,4.30
